Anselmo, Nebraska
Current Conditions -  °F | °C
As of 8:13 PM on Sunday 21 Dec 2014 (Local Time) from KBBW Reporting Station
Haze Haze  
Wind Chill:   Ceiling: 7500
Heat Index:   Visibility: 6mi
Dew Point:   Wind: 6mph
Humidity: 93%   Direction: 150°SSE
Pressure: 29.5"   Gusts: NA
Location:  41.62°N, 99.87°W
Report Text: KBBW 220213Z AUTO 15005KT 6SM BR SCT009 SCT014 OVC075 03/02 A2950 RMK AO2 T00280017
Loading
Personal Weather Stations






























Interactive Weather Map New forecast layout! Learn more

10-Day Weather Forecast

Advertisements
Track Severe Weather on mobile